Rechercher aéroport 
image banner adimage banner adimage banner ad
image banner ad

2CA6 - K&T 660 Figueroa Partners

Situé à Los Angeles, United States

ICAO - 2CA6, IATA -

Données fournies par Airmate  

Information générale

Coordonnées: N34°2'58" W118°15'34"
Élévation : 629 feet MSL.
Variation magnétique : 14° East
Voir autres Aéroports à California

Données opérationnelles

Special qualification required
Heure actuelle UTC:
Heure actuelle locale:
METAR: KHHR 020353Z 25008KT 10SM CLR 20/14 A3000 RMK AO2 SLP158 T02000139
Voir NOTAMs / SUP AIP / TFR affectant cet aéroport [VIEW]
Fréquences de communication: [VIEW]

Pistes:

Coordonnées de l'aéroport

Adresse: Los Angeles United States

Vue satellite de 2CA6